Flood From: 18-02-2018 16:00 Until: 19-02-2018 16:00 warning for: Flood Level: Yellow info button

Although rather usual in this region, locally or potentially dangerous phenomena are expected. (such as local winds, summer thunderstorms, rising streams or high waves) Be aware and pay attention to the latest weather updates, especially if you carry out activities exposed to weather or close to a stream or shoreline. 


Meteo18 Weather Cam more information Meteo18 Weather Cam


Thunder radar more information blitzortung!


Rain radar more information rain snow radar


Visit our other weather sites:

Template documentation
and downloads

And another site



Weather Underground History page Text

Daily Summary for February 1, 2017 Units:  Both    English   Metric
« Previous Day
Next Day »
Daily Weekly Monthly Yearly Custom
  High: Low: Average:
Temperature: TemperatureC °F /  -17.8 °C 4.9 °F /  -15.1 °C 9.3 °F /  -12.6 °C
Dew Point: DewpointC °F /  -17.8 °C 4.6 °F /  -15.2 °C 7.8 °F /  -13.4 °C
Humidity: Humidity % 77 % 91 %
Wind Speed: WindSpeedKMH mph /  0 km/h - 2.2 mph /  3.5 km/h
Wind Gust: WindSpeedGustKMH mph /  0 km/h - -
Wind:- - SSW
Pressure: PressurehPa in /  0 hPa 1012.4 in /  34279.9 hPa -
Precipitation: 0.3 in /  7.62 mm    
Historical Graphs
 
 
Tabular Data for February 1, 2017
Time Temperature Dew Point Pressure Wind Wind Speed Wind Gust Humidity Rainfall Rate (Hourly)
TemperatureC °F /  -17.8 °C DewpointC °F /  -17.8 °C PressurehPa in /  0 hPa Calm     Humidity % HourlyPrecipMM in /  0 mm
00:02 9.1 °F /  -12.7 °C 8.8 °F /  -12.9 °C 1016.1 in /  34405.1 hPa Calm     98 % 0.0 in /  0 mm
00:12 9.1 °F /  -12.7 °C 8.8 °F /  -12.9 °C 1016.1 in /  34405.1 hPa Calm     98 % 0.0 in /  0 mm
00:17 9.1 °F /  -12.7 °C 8.8 °F /  -12.9 °C 1016.1 in /  34405.1 hPa Calm     98 % 0.0 in /  0 mm
00:22 9.2 °F /  -12.7 °C 8.9 °F /  -12.8 °C 1016.1 in /  34405.1 hPa Calm     98 % 0.0 in /  0 mm
00:32 9.1 °F /  -12.7 °C 8.8 °F /  -12.9 °C 1016.1 in /  34405.1 hPa Calm     98 % 0.0 in /  0 mm
00:37 9.1 °F /  -12.7 °C 8.8 °F /  -12.9 °C 1016.1 in /  34405.1 hPa Calm     98 % 0.0 in /  0 mm
00:42 9.1 °F /  -12.7 °C 8.8 °F /  -12.9 °C 1016.1 in /  34405.1 hPa Calm     98 % 0.0 in /  0 mm
00:52 9.1 °F /  -12.7 °C 8.8 °F /  -12.9 °C 1016.1 in /  34405.1 hPa Calm     98 % 0.0 in /  0 mm
00:57 8.9 °F /  -12.8 °C 8.6 °F /  -13 °C 1016.1 in /  34405.1 hPa Calm     98 % 0.0 in /  0 mm
01:02 8.9 °F /  -12.8 °C 8.6 °F /  -13 °C 1016.1 in /  34405.1 hPa Calm     98 % 0.0 in /  0 mm
01:12 8.9 °F /  -12.8 °C 8.6 °F /  -13 °C 1015.8 in /  34395 hPa Calm     98 % 0.0 in /  0 mm
01:17 8.9 °F /  -12.8 °C 8.6 °F /  -13 °C 1015.8 in /  34395 hPa Calm     98 % 0.0 in /  0 mm
01:22 8.9 °F /  -12.8 °C 8.6 °F /  -13 °C 1015.8 in /  34395 hPa Calm     98 % 0.0 in /  0 mm
01:27 8.9 °F /  -12.8 °C 8.6 °F /  -13 °C 1015.8 in /  34395 hPa Calm     98 % 0.0 in /  0 mm
01:32 8.9 °F /  -12.8 °C 8.6 °F /  -13 °C 1015.8 in /  34395 hPa Calm     98 % 0.0 in /  0 mm
01:37 8.9 °F /  -12.8 °C 8.6 °F /  -13 °C 1015.8 in /  34395 hPa Calm     98 % 0.0 in /  0 mm
01:42 8.8 °F /  -12.9 °C 8.5 °F /  -13.1 °C 1015.8 in /  34395 hPa Calm     98 % 0.0 in /  0 mm
01:47 8.8 °F /  -12.9 °C 8.5 °F /  -13.1 °C 1015.8 in /  34395 hPa Calm     98 % 0.0 in /  0 mm
01:52 8.8 °F /  -12.9 °C 8.5 °F /  -13.1 °C 1015.8 in /  34395 hPa Calm     98 % 0.0 in /  0 mm
01:57 8.8 °F /  -12.9 °C 8.5 °F /  -13.1 °C 1015.8 in /  34395 hPa Calm     98 % 0.0 in /  0 mm
02:02 8.7 °F /  -12.9 °C 8.4 °F /  -13.1 °C 1015.5 in /  34384.8 hPa Calm     98 % 0.0 in /  0 mm
02:07 8.7 °F /  -12.9 °C 8.4 °F /  -13.1 °C 1015.5 in /  34384.8 hPa Calm     98 % 0.0 in /  0 mm
02:12 8.7 °F /  -12.9 °C 8.4 °F /  -13.1 °C 1015.8 in /  34395 hPa Calm     98 % 0.0 in /  0 mm
02:17 8.7 °F /  -12.9 °C 8.4 °F /  -13.1 °C 1015.8 in /  34395 hPa Calm     98 % 0.0 in /  0 mm
02:22 8.6 °F /  -13 °C 8.3 °F /  -13.2 °C 1015.5 in /  34384.8 hPa Calm     98 % 0.0 in /  0 mm
02:27 8.5 °F /  -13.1 °C 8.2 °F /  -13.2 °C 1015.5 in /  34384.8 hPa Calm     98 % 0.0 in /  0 mm
02:32 8.5 °F /  -13.1 °C 8.2 °F /  -13.2 °C 1015.5 in /  34384.8 hPa Calm     98 % 0.0 in /  0 mm
02:37 8.6 °F /  -13 °C 8.3 °F /  -13.2 °C 1015.5 in /  34384.8 hPa Calm     98 % 0.0 in /  0 mm
02:42 8.6 °F /  -13 °C 8.3 °F /  -13.2 °C 1015.5 in /  34384.8 hPa Calm     98 % 0.0 in /  0 mm
02:47 8.6 °F /  -13 °C 8.3 °F /  -13.2 °C 1015.5 in /  34384.8 hPa Calm     98 % 0.0 in /  0 mm
02:52 8.5 °F /  -13.1 °C 8.2 °F /  -13.2 °C 1015.5 in /  34384.8 hPa Calm     98 % 0.0 in /  0 mm
02:57 8.5 °F /  -13.1 °C 8.2 °F /  -13.2 °C 1015.5 in /  34384.8 hPa Calm     98 % 0.0 in /  0 mm
03:02 8.5 °F /  -13.1 °C 8.2 °F /  -13.2 °C 1015.5 in /  34384.8 hPa Calm     98 % 0.0 in /  0 mm
03:07 8.4 °F /  -13.1 °C 8.1 °F /  -13.3 °C 1015.5 in /  34384.8 hPa Calm     98 % 0.0 in /  0 mm
03:12 8.3 °F /  -13.2 °C 8.0 °F /  -13.3 °C 1015.5 in /  34384.8 hPa Calm     98 % 0.0 in /  0 mm
03:17 8.2 °F /  -13.2 °C 7.9 °F /  -13.4 °C 1015.5 in /  34384.8 hPa Calm     98 % 0.0 in /  0 mm
03:22 8.3 °F /  -13.2 °C 8.0 °F /  -13.3 °C 1015.1 in /  34371.3 hPa Calm     98 % 0.0 in /  0 mm
03:27 8.2 °F /  -13.2 °C 7.9 °F /  -13.4 °C 1015.1 in /  34371.3 hPa Calm     98 % 0.0 in /  0 mm
03:32 8.3 °F /  -13.2 °C 8.0 °F /  -13.3 °C 1015.1 in /  34371.3 hPa Calm     98 % 0.0 in /  0 mm
03:37 8.3 °F /  -13.2 °C 8.0 °F /  -13.3 °C 1015.1 in /  34371.3 hPa Calm     98 % 0.0 in /  0 mm
03:42 8.0 °F /  -13.3 °C 7.7 °F /  -13.5 °C 1015.1 in /  34371.3 hPa Calm     98 % 0.0 in /  0 mm
03:47 7.9 °F /  -13.4 °C 7.6 °F /  -13.6 °C 1015.1 in /  34371.3 hPa Calm     98 % 0.0 in /  0 mm
03:52 7.9 °F /  -13.4 °C 7.6 °F /  -13.6 °C 1015.1 in /  34371.3 hPa Calm     98 % 0.0 in /  0 mm
03:57 7.9 °F /  -13.4 °C 7.6 °F /  -13.6 °C 1015.1 in /  34371.3 hPa Calm     98 % 0.0 in /  0 mm
04:02 7.9 °F /  -13.4 °C 7.6 °F /  -13.6 °C 1015.1 in /  34371.3 hPa Calm     98 % 0.0 in /  0 mm
04:07 7.9 °F /  -13.4 °C 7.6 °F /  -13.6 °C 1015.1 in /  34371.3 hPa Calm     98 % 0.0 in /  0 mm
04:12 7.8 °F /  -13.4 °C 7.5 °F /  -13.6 °C 1014.8 in /  34361.1 hPa Calm     98 % 0.0 in /  0 mm
04:17 7.7 °F /  -13.5 °C 7.4 °F /  -13.7 °C 1015.1 in /  34371.3 hPa Calm     98 % 0.0 in /  0 mm
04:22 7.6 °F /  -13.6 °C 7.3 °F /  -13.7 °C 1015.1 in /  34371.3 hPa Calm     98 % 0.0 in /  0 mm
04:27 7.4 °F /  -13.7 °C 7.1 °F /  -13.8 °C 1015.1 in /  34371.3 hPa Calm     98 % 0.0 in /  0 mm
04:32 7.3 °F /  -13.7 °C 7.0 °F /  -13.9 °C 1015.1 in /  34371.3 hPa Calm     98 % 0.0 in /  0 mm
04:37 7.3 °F /  -13.7 °C 7.0 °F /  -13.9 °C 1015.1 in /  34371.3 hPa Calm     98 % 0.0 in /  0 mm
04:42 7.3 °F /  -13.7 °C 7.0 °F /  -13.9 °C 1015.1 in /  34371.3 hPa Calm     98 % 0.0 in /  0 mm
04:47 7.2 °F /  -13.8 °C 6.9 °F /  -13.9 °C 1015.1 in /  34371.3 hPa Calm     98 % 0.0 in /  0 mm
04:52 7.2 °F /  -13.8 °C 6.9 °F /  -13.9 °C 1015.1 in /  34371.3 hPa Calm     98 % 0.0 in /  0 mm
04:57 7.3 °F /  -13.7 °C 7.0 °F /  -13.9 °C 1015.1 in /  34371.3 hPa Calm     98 % 0.0 in /  0 mm
05:02 7.4 °F /  -13.7 °C 7.1 °F /  -13.8 °C 1014.8 in /  34361.1 hPa Calm     98 % 0.0 in /  0 mm
05:07 7.3 °F /  -13.7 °C 7.0 °F /  -13.9 °C 1014.8 in /  34361.1 hPa Calm     98 % 0.0 in /  0 mm
05:12 7.3 °F /  -13.7 °C 7.0 °F /  -13.9 °C 1014.8 in /  34361.1 hPa Calm     98 % 0.0 in /  0 mm
05:17 7.3 °F /  -13.7 °C 7.0 °F /  -13.9 °C 1014.8 in /  34361.1 hPa Calm     98 % 0.0 in /  0 mm
05:22 7.2 °F /  -13.8 °C 6.9 °F /  -13.9 °C 1014.8 in /  34361.1 hPa Calm     98 % 0.0 in /  0 mm
05:27 7.1 °F /  -13.8 °C 6.8 °F /  -14 °C 1014.8 in /  34361.1 hPa Calm     98 % 0.0 in /  0 mm
05:32 6.8 °F /  -14 °C 6.5 °F /  -14.2 °C 1014.8 in /  34361.1 hPa Calm     98 % 0.0 in /  0 mm
05:37 6.6 °F /  -14.1 °C 6.3 °F /  -14.3 °C 1014.8 in /  34361.1 hPa Calm     98 % 0.0 in /  0 mm
05:42 6.7 °F /  -14.1 °C 6.4 °F /  -14.2 °C 1014.8 in /  34361.1 hPa Calm     98 % 0.0 in /  0 mm
05:47 6.8 °F /  -14 °C 6.5 °F /  -14.2 °C 1014.8 in /  34361.1 hPa Calm     98 % 0.0 in /  0 mm
05:52 6.6 °F /  -14.1 °C 6.3 °F /  -14.3 °C 1014.8 in /  34361.1 hPa Calm     98 % 0.0 in /  0 mm
05:57 6.7 °F /  -14.1 °C 6.4 °F /  -14.2 °C 1014.8 in /  34361.1 hPa Calm     98 % 0.0 in /  0 mm
06:02 6.7 °F /  -14.1 °C 6.4 °F /  -14.2 °C 1014.8 in /  34361.1 hPa Calm     98 % 0.0 in /  0 mm
06:12 6.5 °F /  -14.2 °C 6.2 °F /  -14.3 °C 1014.8 in /  34361.1 hPa Calm     98 % 0.0 in /  0 mm
06:17 6.4 °F /  -14.2 °C 6.1 °F /  -14.4 °C 1014.8 in /  34361.1 hPa Calm     98 % 0.0 in /  0 mm
06:22 6.3 °F /  -14.3 °C 6.0 °F /  -14.4 °C 1014.8 in /  34361.1 hPa Calm     98 % 0.0 in /  0 mm
06:27 6.3 °F /  -14.3 °C 6.0 °F /  -14.4 °C 1014.8 in /  34361.1 hPa Calm     98 % 0.0 in /  0 mm
06:32 6.3 °F /  -14.3 °C 6.0 °F /  -14.4 °C 1014.8 in /  34361.1 hPa Calm     98 % 0.0 in /  0 mm
06:37 6.3 °F /  -14.3 °C 6.0 °F /  -14.4 °C 1014.8 in /  34361.1 hPa Calm     98 % 0.0 in /  0 mm
06:42 6.1 °F /  -14.4 °C 5.8 °F /  -14.6 °C 1014.8 in /  34361.1 hPa Calm     98 % 0.0 in /  0 mm
06:47 6.1 °F /  -14.4 °C 5.8 °F /  -14.6 °C 1014.8 in /  34361.1 hPa Calm     98 % 0.0 in /  0 mm
06:52 6.1 °F /  -14.4 °C 5.8 °F /  -14.6 °C 1014.8 in /  34361.1 hPa Calm     98 % 0.0 in /  0 mm
06:57 6.0 °F /  -14.4 °C 5.7 °F /  -14.6 °C 1014.8 in /  34361.1 hPa Calm     98 % 0.0 in /  0 mm
07:02 6.0 °F /  -14.4 °C 5.7 °F /  -14.6 °C 1014.4 in /  34347.6 hPa Calm     98 % 0.0 in /  0 mm
07:07 5.9 °F /  -14.5 °C 5.6 °F /  -14.7 °C 1014.8 in /  34361.1 hPa Calm     98 % 0.0 in /  0 mm
07:12 5.9 °F /  -14.5 °C 5.6 °F /  -14.7 °C 1014.8 in /  34361.1 hPa Calm     98 % 0.0 in /  0 mm
07:17 5.8 °F /  -14.6 °C 5.5 °F /  -14.7 °C 1014.8 in /  34361.1 hPa Calm     98 % 0.0 in /  0 mm
07:22 5.7 °F /  -14.6 °C 5.4 °F /  -14.8 °C 1014.8 in /  34361.1 hPa Calm     98 % 0.0 in /  0 mm
07:27 5.7 °F /  -14.6 °C 5.4 °F /  -14.8 °C 1014.8 in /  34361.1 hPa Calm     98 % 0.0 in /  0 mm
07:32 5.7 °F /  -14.6 °C 5.4 °F /  -14.8 °C 1014.8 in /  34361.1 hPa Calm     98 % 0.0 in /  0 mm
07:37 5.8 °F /  -14.6 °C 5.5 °F /  -14.7 °C 1014.8 in /  34361.1 hPa Calm     98 % 0.0 in /  0 mm
07:42 5.7 °F /  -14.6 °C 5.4 °F /  -14.8 °C 1014.8 in /  34361.1 hPa Calm     98 % 0.0 in /  0 mm
07:47 5.8 °F /  -14.6 °C 5.5 °F /  -14.7 °C 1014.8 in /  34361.1 hPa Calm     98 % 0.0 in /  0 mm
07:52 5.7 °F /  -14.6 °C 5.4 °F /  -14.8 °C 1014.8 in /  34361.1 hPa Calm     98 % 0.0 in /  0 mm
07:57 5.7 °F /  -14.6 °C 5.4 °F /  -14.8 °C 1014.8 in /  34361.1 hPa Calm     98 % 0.0 in /  0 mm
08:02 5.7 °F /  -14.6 °C 5.4 °F /  -14.8 °C 1014.8 in /  34361.1 hPa Calm     98 % 0.0 in /  0 mm
08:07 5.4 °F /  -14.8 °C 5.1 °F /  -14.9 °C 1014.8 in /  34361.1 hPa Calm     98 % 0.0 in /  0 mm
08:12 5.1 °F /  -14.9 °C 4.8 °F /  -15.1 °C 1014.8 in /  34361.1 hPa Calm     98 % 0.0 in /  0 mm
08:17 5.1 °F /  -14.9 °C 4.8 °F /  -15.1 °C 1014.8 in /  34361.1 hPa Calm     98 % 0.0 in /  0 mm
08:22 5.3 °F /  -14.8 °C 5.0 °F /  -15 °C 1014.8 in /  34361.1 hPa Calm     98 % 0.0 in /  0 mm
08:27 5.3 °F /  -14.8 °C 5.0 °F /  -15 °C 1014.8 in /  34361.1 hPa Calm     98 % 0.3 in /  7.62 mm
08:32 5.3 °F /  -14.8 °C 5.0 °F /  -15 °C 1014.8 in /  34361.1 hPa Calm     98 % 0.3 in /  7.62 mm
08:37 5.3 °F /  -14.8 °C 5.0 °F /  -15 °C 1014.8 in /  34361.1 hPa Calm     98 % 0.3 in /  7.62 mm
08:42 5.5 °F /  -14.7 °C 5.2 °F /  -14.9 °C 1014.8 in /  34361.1 hPa Calm     98 % 0.3 in /  7.62 mm
08:47 5.4 °F /  -14.8 °C 5.1 °F /  -14.9 °C 1014.8 in /  34361.1 hPa Calm     98 % 0.3 in /  7.62 mm
08:52 5.3 °F /  -14.8 °C 5.0 °F /  -15 °C 1014.8 in /  34361.1 hPa Calm     98 % 0.3 in /  7.62 mm
08:57 5.2 °F /  -14.9 °C 4.9 °F /  -15.1 °C 1014.8 in /  34361.1 hPa Calm     98 % 0.3 in /  7.62 mm
09:02 5.3 °F /  -14.8 °C 5.0 °F /  -15 °C 1014.8 in /  34361.1 hPa Calm     98 % 0.3 in /  7.62 mm
09:07 5.3 °F /  -14.8 °C 5.0 °F /  -15 °C 1014.8 in /  34361.1 hPa Calm     98 % 0.3 in /  7.62 mm
09:12 5.2 °F /  -14.9 °C 4.9 °F /  -15.1 °C 1014.8 in /  34361.1 hPa Calm     98 % 0.3 in /  7.62 mm
09:17 4.9 °F /  -15.1 °C 4.6 °F /  -15.2 °C 1014.8 in /  34361.1 hPa Calm     98 % 0.3 in /  7.62 mm
09:22 5.1 °F /  -14.9 °C 4.8 °F /  -15.1 °C 1014.8 in /  34361.1 hPa Calm     98 % 0.3 in /  7.62 mm
09:27 5.3 °F /  -14.8 °C 5.0 °F /  -15 °C 1014.8 in /  34361.1 hPa Calm     98 % 0.0 in /  0 mm
09:32 5.5 °F /  -14.7 °C 5.2 °F /  -14.9 °C 1014.8 in /  34361.1 hPa Calm     98 % 0.0 in /  0 mm
09:37 5.6 °F /  -14.7 °C 5.3 °F /  -14.8 °C 1014.8 in /  34361.1 hPa Calm     98 % 0.0 in /  0 mm
09:42 5.7 °F /  -14.6 °C 5.4 °F /  -14.8 °C 1014.8 in /  34361.1 hPa Calm     98 % 0.0 in /  0 mm
09:52 5.9 °F /  -14.5 °C 5.6 °F /  -14.7 °C 1014.8 in /  34361.1 hPa Calm     98 % 0.0 in /  0 mm
09:57 6.2 °F /  -14.3 °C 5.9 °F /  -14.5 °C 1014.8 in /  34361.1 hPa Calm     98 % 0.0 in /  0 mm
10:02 6.4 °F /  -14.2 °C 6.1 °F /  -14.4 °C 1014.8 in /  34361.1 hPa Calm     98 % 0.0 in /  0 mm
10:07 7.1 °F /  -13.8 °C 6.8 °F /  -14 °C 1014.8 in /  34361.1 hPa Calm     98 % 0.0 in /  0 mm
10:12 7.2 °F /  -13.8 °C 6.9 °F /  -13.9 °C 1014.8 in /  34361.1 hPa Calm     98 % 0.0 in /  0 mm
10:17 6.9 °F /  -13.9 °C 6.6 °F /  -14.1 °C 1014.8 in /  34361.1 hPa Calm     98 % 0.0 in /  0 mm
10:22 6.9 °F /  -13.9 °C 6.6 °F /  -14.1 °C 1014.8 in /  34361.1 hPa Calm     98 % 0.0 in /  0 mm
10:27 7.2 °F /  -13.8 °C 6.9 °F /  -13.9 °C 1014.8 in /  34361.1 hPa Calm     98 % 0.0 in /  0 mm
10:32 7.3 °F /  -13.7 °C 7.0 °F /  -13.9 °C 1014.8 in /  34361.1 hPa Calm     98 % 0.0 in /  0 mm
10:42 7.5 °F /  -13.6 °C 7.2 °F /  -13.8 °C 1014.8 in /  34361.1 hPa Calm     98 % 0.0 in /  0 mm
10:47 7.3 °F /  -13.7 °C 7.0 °F /  -13.9 °C 1014.8 in /  34361.1 hPa Calm   3.2 mph /  5.1 km/h 98 % 0.0 in /  0 mm
10:52 7.3 °F /  -13.7 °C 6.9 °F /  -13.9 °C 1014.8 in /  34361.1 hPa Calm   3.2 mph /  5.1 km/h 97 % 0.0 in /  0 mm
10:57 7.4 °F /  -13.7 °C 7.1 °F /  -13.8 °C 1014.8 in /  34361.1 hPa Calm   3.2 mph /  5.1 km/h 98 % 0.0 in /  0 mm
11:02 7.4 °F /  -13.7 °C 7.0 °F /  -13.9 °C 1014.8 in /  34361.1 hPa ESE 1.6 mph /  2.6 km/h 3.2 mph /  5.1 km/h 97 % 0.0 in /  0 mm
11:07 7.5 °F /  -13.6 °C 7.1 °F /  -13.8 °C 1014.8 in /  34361.1 hPa Calm   4.8 mph /  7.7 km/h 97 % 0.0 in /  0 mm
11:12 7.7 °F /  -13.5 °C 7.4 °F /  -13.7 °C 1014.8 in /  34361.1 hPa Calm   4.8 mph /  7.7 km/h 98 % 0.0 in /  0 mm
11:17 8.0 °F /  -13.3 °C 7.7 °F /  -13.5 °C 1014.8 in /  34361.1 hPa Calm   4.8 mph /  7.7 km/h 98 % 0.0 in /  0 mm
11:22 8.1 °F /  -13.3 °C 7.8 °F /  -13.4 °C 1014.8 in /  34361.1 hPa SE 1.6 mph /  2.6 km/h 3.2 mph /  5.1 km/h 98 % 0.0 in /  0 mm
11:27 8.3 °F /  -13.2 °C 8.0 °F /  -13.3 °C 1014.8 in /  34361.1 hPa Calm   3.2 mph /  5.1 km/h 98 % 0.0 in /  0 mm
11:32 8.5 °F /  -13.1 °C 8.2 °F /  -13.2 °C 1014.4 in /  34347.6 hPa Calm   3.2 mph /  5.1 km/h 98 % 0.0 in /  0 mm
11:37 8.8 °F /  -12.9 °C 8.3 °F /  -13.2 °C 1014.4 in /  34347.6 hPa Calm   3.2 mph /  5.1 km/h 97 % 0.0 in /  0 mm
11:42 8.9 °F /  -12.8 °C 8.4 °F /  -13.1 °C 1014.8 in /  34361.1 hPa Calm     97 % 0.0 in /  0 mm
11:47 9.3 °F /  -12.6 °C 8.8 °F /  -12.9 °C 1014.8 in /  34361.1 hPa Calm   4.8 mph /  7.7 km/h 97 % 0.0 in /  0 mm
11:52 9.4 °F /  -12.6 °C 8.8 °F /  -12.9 °C 1014.8 in /  34361.1 hPa Calm   6.4 mph /  10.3 km/h 96 % 0.0 in /  0 mm
11:57 9.5 °F /  -12.5 °C 8.9 °F /  -12.8 °C 1014.8 in /  34361.1 hPa SE 3.2 mph /  5.1 km/h 6.4 mph /  10.3 km/h 96 % 0.0 in /  0 mm
12:02 9.7 °F /  -12.4 °C 9.1 °F /  -12.7 °C 1014.4 in /  34347.6 hPa SE 4.8 mph /  7.7 km/h 6.4 mph /  10.3 km/h 96 % 0.0 in /  0 mm
12:07 9.9 °F /  -12.3 °C 9.0 °F /  -12.8 °C 1014.4 in /  34347.6 hPa SSW 3.2 mph /  5.1 km/h 8.0 mph /  12.9 km/h 94 % 0.0 in /  0 mm
12:12 10.2 °F /  -12.1 °C 9.1 °F /  -12.7 °C 1014.4 in /  34347.6 hPa ESE 4.8 mph /  7.7 km/h 8.0 mph /  12.9 km/h 93 % 0.0 in /  0 mm
12:17 10.3 °F /  -12.1 °C 9.1 °F /  -12.7 °C 1014.4 in /  34347.6 hPa Calm   8.0 mph /  12.9 km/h 92 % 0.0 in /  0 mm
12:22 10.5 °F /  -11.9 °C 9.3 °F /  -12.6 °C 1014.4 in /  34347.6 hPa Calm   4.8 mph /  7.7 km/h 92 % 0.0 in /  0 mm
12:32 11.1 °F /  -11.6 °C 9.5 °F /  -12.5 °C 1014.4 in /  34347.6 hPa South 1.6 mph /  2.6 km/h 4.8 mph /  7.7 km/h 90 % 0.0 in /  0 mm
12:37 11.3 °F /  -11.5 °C 9.4 °F /  -12.6 °C 1014.1 in /  34337.4 hPa Calm   4.8 mph /  7.7 km/h 88 % 0.0 in /  0 mm
12:47 11.7 °F /  -11.3 °C 9.6 °F /  -12.4 °C 1014.1 in /  34337.4 hPa Calm   8.0 mph /  12.9 km/h 87 % 0.0 in /  0 mm
12:52 11.9 °F /  -11.2 °C 9.6 °F /  -12.4 °C 1014.1 in /  34337.4 hPa South 3.2 mph /  5.1 km/h 8.0 mph /  12.9 km/h 86 % 0.0 in /  0 mm
12:57 12.2 °F /  -11 °C 9.9 °F /  -12.3 °C 1014.1 in /  34337.4 hPa South 4.8 mph /  7.7 km/h 8.0 mph /  12.9 km/h 86 % 0.0 in /  0 mm
13:02 12.2 °F /  -11 °C 9.9 °F /  -12.3 °C 1014.1 in /  34337.4 hPa SE 3.2 mph /  5.1 km/h 9.7 mph /  15.6 km/h 86 % 0.0 in /  0 mm
13:07 12.3 °F /  -10.9 °C 9.9 °F /  -12.3 °C 1014.1 in /  34337.4 hPa SE 3.2 mph /  5.1 km/h 9.7 mph /  15.6 km/h 85 % 0.0 in /  0 mm
13:12 12.6 °F /  -10.8 °C 10.0 °F /  -12.2 °C 1013.8 in /  34327.3 hPa SSW 3.2 mph /  5.1 km/h 9.7 mph /  15.6 km/h 84 % 0.0 in /  0 mm
13:17 12.6 °F /  -10.8 °C 9.8 °F /  -12.3 °C 1013.8 in /  34327.3 hPa South 3.2 mph /  5.1 km/h 9.7 mph /  15.6 km/h 83 % 0.0 in /  0 mm
13:22 12.5 °F /  -10.8 °C 10.0 °F /  -12.2 °C 1013.8 in /  34327.3 hPa South 1.6 mph /  2.6 km/h 9.7 mph /  15.6 km/h 85 % 0.0 in /  0 mm
13:27 12.6 °F /  -10.8 °C 10.0 °F /  -12.2 °C 1013.8 in /  34327.3 hPa SSW 1.6 mph /  2.6 km/h 9.7 mph /  15.6 km/h 84 % 0.0 in /  0 mm
13:32 12.8 °F /  -10.7 °C 10.2 °F /  -12.1 °C 1013.8 in /  34327.3 hPa SE 1.6 mph /  2.6 km/h 9.7 mph /  15.6 km/h 84 % 0.0 in /  0 mm
13:37 12.9 °F /  -10.6 °C 10.4 °F /  -12 °C 1013.8 in /  34327.3 hPa SSE 6.4 mph /  10.3 km/h 9.7 mph /  15.6 km/h 85 % 0.0 in /  0 mm
13:42 13.1 °F /  -10.5 °C 10.5 °F /  -11.9 °C 1013.4 in /  34313.7 hPa SE 1.6 mph /  2.6 km/h 12.9 mph /  20.8 km/h 84 % 0.0 in /  0 mm
13:47 13.3 °F /  -10.4 °C 10.5 °F /  -11.9 °C 1013.4 in /  34313.7 hPa South 3.2 mph /  5.1 km/h 12.9 mph /  20.8 km/h 83 % 0.0 in /  0 mm
13:52 13.3 °F /  -10.4 °C 9.7 °F /  -12.4 °C 1013.4 in /  34313.7 hPa South 6.4 mph /  10.3 km/h 11.3 mph /  18.2 km/h 79 % 0.0 in /  0 mm
13:57 13.3 °F /  -10.4 °C 9.7 °F /  -12.4 °C 1013.4 in /  34313.7 hPa SSW 12.9 mph /  20.8 km/h 12.9 mph /  20.8 km/h 79 % 0.0 in /  0 mm
14:02 13.3 °F /  -10.4 °C 10.1 °F /  -12.2 °C 1013.4 in /  34313.7 hPa South 9.7 mph /  15.6 km/h 14.5 mph /  23.3 km/h 81 % 0.0 in /  0 mm
14:07 13.4 °F /  -10.3 °C 10.0 °F /  -12.2 °C 1013.1 in /  34303.6 hPa SSW 8.0 mph /  12.9 km/h 14.5 mph /  23.3 km/h 80 % 0.0 in /  0 mm
14:12 13.5 °F /  -10.3 °C 9.9 °F /  -12.3 °C 1013.1 in /  34303.6 hPa SSW 4.8 mph /  7.7 km/h 14.5 mph /  23.3 km/h 79 % 0.0 in /  0 mm
14:17 13.6 °F /  -10.2 °C 10.0 °F /  -12.2 °C 1013.1 in /  34303.6 hPa SW 8.0 mph /  12.9 km/h 16.1 mph /  25.9 km/h 79 % 0.0 in /  0 mm
14:22 13.5 °F /  -10.3 °C 9.5 °F /  -12.5 °C 1013.1 in /  34303.6 hPa South 6.4 mph /  10.3 km/h 17.7 mph /  28.5 km/h 77 % 0.0 in /  0 mm
14:27 13.4 °F /  -10.3 °C 9.6 °F /  -12.4 °C 1013.1 in /  34303.6 hPa SSW 8.0 mph /  12.9 km/h 19.3 mph /  31.1 km/h 78 % 0.0 in /  0 mm
14:32 13.4 °F /  -10.3 °C 10.0 °F /  -12.2 °C 1013.1 in /  34303.6 hPa SW 9.7 mph /  15.6 km/h 19.3 mph /  31.1 km/h 80 % 0.0 in /  0 mm
14:37 13.4 °F /  -10.3 °C 10.0 °F /  -12.2 °C 1013.1 in /  34303.6 hPa SW 11.3 mph /  18.2 km/h 16.1 mph /  25.9 km/h 80 % 0.0 in /  0 mm
14:42 13.5 °F /  -10.3 °C 9.9 °F /  -12.3 °C 1013.1 in /  34303.6 hPa SSW 6.4 mph /  10.3 km/h 14.5 mph /  23.3 km/h 79 % 0.0 in /  0 mm
14:47 13.5 °F /  -10.3 °C 9.9 °F /  -12.3 °C 1013.1 in /  34303.6 hPa SSW 9.7 mph /  15.6 km/h 14.5 mph /  23.3 km/h 79 % 0.0 in /  0 mm
14:52 13.5 °F /  -10.3 °C 10.3 °F /  -12.1 °C 1013.1 in /  34303.6 hPa South 4.8 mph /  7.7 km/h 14.5 mph /  23.3 km/h 81 % 0.0 in /  0 mm
14:57 13.5 °F /  -10.3 °C 10.1 °F /  -12.2 °C 1013.1 in /  34303.6 hPa SSE 3.2 mph /  5.1 km/h 14.5 mph /  23.3 km/h 80 % 0.0 in /  0 mm
15:02 13.4 °F /  -10.3 °C 10.0 °F /  -12.2 °C 1013.1 in /  34303.6 hPa South 8.0 mph /  12.9 km/h 12.9 mph /  20.8 km/h 80 % 0.0 in /  0 mm
15:07 13.4 °F /  -10.3 °C 10.2 °F /  -12.1 °C 1012.8 in /  34293.4 hPa SSW 9.7 mph /  15.6 km/h 9.7 mph /  15.6 km/h 81 % 0.0 in /  0 mm
15:12 13.5 °F /  -10.3 °C 9.9 °F /  -12.3 °C 1012.8 in /  34293.4 hPa South 8.0 mph /  12.9 km/h 11.3 mph /  18.2 km/h 79 % 0.0 in /  0 mm
15:17 13.5 °F /  -10.3 °C 10.3 °F /  -12.1 °C 1013.1 in /  34303.6 hPa South 4.8 mph /  7.7 km/h 11.3 mph /  18.2 km/h 81 % 0.0 in /  0 mm
15:22 13.4 °F /  -10.3 °C 10.2 °F /  -12.1 °C 1012.8 in /  34293.4 hPa South 4.8 mph /  7.7 km/h 11.3 mph /  18.2 km/h 81 % 0.0 in /  0 mm
15:27 13.4 °F /  -10.3 °C 10.2 °F /  -12.1 °C 1013.1 in /  34303.6 hPa SW 6.4 mph /  10.3 km/h 9.7 mph /  15.6 km/h 81 % 0.0 in /  0 mm
15:32 13.3 °F /  -10.4 °C 9.7 °F /  -12.4 °C 1013.1 in /  34303.6 hPa SSW 6.4 mph /  10.3 km/h 11.3 mph /  18.2 km/h 79 % 0.0 in /  0 mm
15:37 13.3 °F /  -10.4 °C 10.1 °F /  -12.2 °C 1013.1 in /  34303.6 hPa South 6.4 mph /  10.3 km/h 12.9 mph /  20.8 km/h 81 % 0.0 in /  0 mm
15:42 13.1 °F /  -10.5 °C 9.9 °F /  -12.3 °C 1013.1 in /  34303.6 hPa SSW 4.8 mph /  7.7 km/h 12.9 mph /  20.8 km/h 81 % 0.0 in /  0 mm
15:52 12.9 °F /  -10.6 °C 9.7 °F /  -12.4 °C 1013.1 in /  34303.6 hPa South 6.4 mph /  10.3 km/h 8.0 mph /  12.9 km/h 81 % 0.0 in /  0 mm
15:57 12.8 °F /  -10.7 °C 9.4 °F /  -12.6 °C 1013.1 in /  34303.6 hPa South 4.8 mph /  7.7 km/h 11.3 mph /  18.2 km/h 80 % 0.0 in /  0 mm
16:02 12.7 °F /  -10.7 °C 9.5 °F /  -12.5 °C 1013.1 in /  34303.6 hPa SSW 3.2 mph /  5.1 km/h 11.3 mph /  18.2 km/h 81 % 0.0 in /  0 mm
16:07 12.6 °F /  -10.8 °C 9.4 °F /  -12.6 °C 1013.1 in /  34303.6 hPa SSW 4.8 mph /  7.7 km/h 11.3 mph /  18.2 km/h 81 % 0.0 in /  0 mm
16:12 12.6 °F /  -10.8 °C 9.4 °F /  -12.6 °C 1012.8 in /  34293.4 hPa SSE 3.2 mph /  5.1 km/h 8.0 mph /  12.9 km/h 81 % 0.0 in /  0 mm
16:17 12.5 °F /  -10.8 °C 9.3 °F /  -12.6 °C 1012.8 in /  34293.4 hPa SSW 1.6 mph /  2.6 km/h 8.0 mph /  12.9 km/h 81 % 0.0 in /  0 mm
16:22 12.3 °F /  -10.9 °C 9.3 °F /  -12.6 °C 1012.8 in /  34293.4 hPa SSW 1.6 mph /  2.6 km/h 8.0 mph /  12.9 km/h 82 % 0.0 in /  0 mm
16:27 12.3 °F /  -10.9 °C 9.3 °F /  -12.6 °C 1012.8 in /  34293.4 hPa SSW 1.6 mph /  2.6 km/h 6.4 mph /  10.3 km/h 82 % 0.0 in /  0 mm
16:32 12.3 °F /  -10.9 °C 9.3 °F /  -12.6 °C 1012.8 in /  34293.4 hPa SW 3.2 mph /  5.1 km/h 6.4 mph /  10.3 km/h 82 % 0.0 in /  0 mm
16:37 12.3 °F /  -10.9 °C 9.3 °F /  -12.6 °C 1013.1 in /  34303.6 hPa SW 3.2 mph /  5.1 km/h 6.4 mph /  10.3 km/h 82 % 0.0 in /  0 mm
16:42 12.2 °F /  -11 °C 9.2 °F /  -12.7 °C 1013.1 in /  34303.6 hPa SSW 3.2 mph /  5.1 km/h 8.0 mph /  12.9 km/h 82 % 0.0 in /  0 mm
16:47 12.1 °F /  -11.1 °C 9.3 °F /  -12.6 °C 1013.1 in /  34303.6 hPa SSW 4.8 mph /  7.7 km/h 8.0 mph /  12.9 km/h 83 % 0.0 in /  0 mm
16:52 12.0 °F /  -11.1 °C 9.2 °F /  -12.7 °C 1013.1 in /  34303.6 hPa SSW 3.2 mph /  5.1 km/h 6.4 mph /  10.3 km/h 83 % 0.0 in /  0 mm
16:57 11.9 °F /  -11.2 °C 9.3 °F /  -12.6 °C 1013.1 in /  34303.6 hPa SW 4.8 mph /  7.7 km/h 6.4 mph /  10.3 km/h 84 % 0.0 in /  0 mm
17:02 11.9 °F /  -11.2 °C 9.3 °F /  -12.6 °C 1013.1 in /  34303.6 hPa SSW 1.6 mph /  2.6 km/h 4.8 mph /  7.7 km/h 84 % 0.0 in /  0 mm
17:07 11.8 °F /  -11.2 °C 9.2 °F /  -12.7 °C 1013.1 in /  34303.6 hPa SSW 1.6 mph /  2.6 km/h 4.8 mph /  7.7 km/h 84 % 0.0 in /  0 mm
17:12 11.8 °F /  -11.2 °C 9.2 °F /  -12.7 °C 1013.1 in /  34303.6 hPa SSW 1.6 mph /  2.6 km/h 4.8 mph /  7.7 km/h 84 % 0.0 in /  0 mm
17:17 11.7 °F /  -11.3 °C 9.3 °F /  -12.6 °C 1013.1 in /  34303.6 hPa SSW 1.6 mph /  2.6 km/h 3.2 mph /  5.1 km/h 85 % 0.0 in /  0 mm
17:22 11.7 °F /  -11.3 °C 9.3 °F /  -12.6 °C 1013.1 in /  34303.6 hPa South 1.6 mph /  2.6 km/h 3.2 mph /  5.1 km/h 85 % 0.0 in /  0 mm
17:27 11.6 °F /  -11.3 °C 9.2 °F /  -12.7 °C 1013.1 in /  34303.6 hPa South 1.6 mph /  2.6 km/h 3.2 mph /  5.1 km/h 85 % 0.0 in /  0 mm
17:32 11.5 °F /  -11.4 °C 9.1 °F /  -12.7 °C 1013.1 in /  34303.6 hPa SSW 1.6 mph /  2.6 km/h 3.2 mph /  5.1 km/h 85 % 0.0 in /  0 mm
17:37 11.4 °F /  -11.4 °C 9.0 °F /  -12.8 °C 1013.1 in /  34303.6 hPa SSW 3.2 mph /  5.1 km/h 4.8 mph /  7.7 km/h 85 % 0.0 in /  0 mm
17:42 11.4 °F /  -11.4 °C 9.0 °F /  -12.8 °C 1013.1 in /  34303.6 hPa SSW 1.6 mph /  2.6 km/h 6.4 mph /  10.3 km/h 85 % 0.0 in /  0 mm
17:47 11.3 °F /  -11.5 °C 9.0 °F /  -12.8 °C 1013.1 in /  34303.6 hPa SSW 1.6 mph /  2.6 km/h 6.4 mph /  10.3 km/h 86 % 0.0 in /  0 mm
17:52 11.3 °F /  -11.5 °C 9.0 °F /  -12.8 °C 1013.1 in /  34303.6 hPa SSW 1.6 mph /  2.6 km/h 6.4 mph /  10.3 km/h 86 % 0.0 in /  0 mm
17:57 11.3 °F /  -11.5 °C 9.0 °F /  -12.8 °C 1013.4 in /  34313.7 hPa SW 1.6 mph /  2.6 km/h 3.2 mph /  5.1 km/h 86 % 0.0 in /  0 mm
18:02 11.3 °F /  -11.5 °C 8.9 °F /  -12.8 °C 1013.4 in /  34313.7 hPa SSW 3.2 mph /  5.1 km/h 3.2 mph /  5.1 km/h 85 % 0.0 in /  0 mm
18:07 11.3 °F /  -11.5 °C 8.9 °F /  -12.8 °C 1013.4 in /  34313.7 hPa SSW 3.2 mph /  5.1 km/h 3.2 mph /  5.1 km/h 85 % 0.0 in /  0 mm
18:12 11.3 °F /  -11.5 °C 8.9 °F /  -12.8 °C 1013.4 in /  34313.7 hPa SSW 1.6 mph /  2.6 km/h 3.2 mph /  5.1 km/h 85 % 0.0 in /  0 mm
18:17 11.3 °F /  -11.5 °C 8.9 °F /  -12.8 °C 1013.4 in /  34313.7 hPa SSW 3.2 mph /  5.1 km/h 4.8 mph /  7.7 km/h 85 % 0.0 in /  0 mm
18:22 11.3 °F /  -11.5 °C 8.7 °F /  -12.9 °C 1013.4 in /  34313.7 hPa SSW 1.6 mph /  2.6 km/h 4.8 mph /  7.7 km/h 84 % 0.0 in /  0 mm
18:27 11.3 °F /  -11.5 °C 8.9 °F /  -12.8 °C 1013.4 in /  34313.7 hPa SSW 1.6 mph /  2.6 km/h 4.8 mph /  7.7 km/h 85 % 0.0 in /  0 mm
18:32 11.2 °F /  -11.6 °C 8.6 °F /  -13 °C 1013.4 in /  34313.7 hPa SSW 1.6 mph /  2.6 km/h 4.8 mph /  7.7 km/h 84 % 0.0 in /  0 mm
18:37 11.1 °F /  -11.6 °C 8.7 °F /  -12.9 °C 1013.4 in /  34313.7 hPa SW 3.2 mph /  5.1 km/h 3.2 mph /  5.1 km/h 85 % 0.0 in /  0 mm
18:42 11.1 °F /  -11.6 °C 8.5 °F /  -13.1 °C 1013.4 in /  34313.7 hPa SW 1.6 mph /  2.6 km/h 4.8 mph /  7.7 km/h 84 % 0.0 in /  0 mm
18:47 11.1 °F /  -11.6 °C 8.5 °F /  -13.1 °C 1013.4 in /  34313.7 hPa SW 4.8 mph /  7.7 km/h 4.8 mph /  7.7 km/h 84 % 0.0 in /  0 mm
18:52 11.1 °F /  -11.6 °C 8.5 °F /  -13.1 °C 1013.4 in /  34313.7 hPa SSW 4.8 mph /  7.7 km/h 6.4 mph /  10.3 km/h 84 % 0.0 in /  0 mm
18:57 11.1 °F /  -11.6 °C 8.5 °F /  -13.1 °C 1013.4 in /  34313.7 hPa South 3.2 mph /  5.1 km/h 6.4 mph /  10.3 km/h 84 % 0.0 in /  0 mm
19:02 10.9 °F /  -11.7 °C 8.3 °F /  -13.2 °C 1013.4 in /  34313.7 hPa SSW 1.6 mph /  2.6 km/h 6.4 mph /  10.3 km/h 84 % 0.0 in /  0 mm
19:07 10.7 °F /  -11.8 °C 8.3 °F /  -13.2 °C 1013.4 in /  34313.7 hPa SSW 4.8 mph /  7.7 km/h 6.4 mph /  10.3 km/h 85 % 0.0 in /  0 mm
19:12 10.5 °F /  -11.9 °C 8.1 °F /  -13.3 °C 1013.4 in /  34313.7 hPa SSW 4.8 mph /  7.7 km/h 6.4 mph /  10.3 km/h 85 % 0.0 in /  0 mm
19:17 10.5 °F /  -11.9 °C 8.1 °F /  -13.3 °C 1013.4 in /  34313.7 hPa SW 6.4 mph /  10.3 km/h 6.4 mph /  10.3 km/h 85 % 0.0 in /  0 mm
19:22 10.6 °F /  -11.9 °C 8.2 °F /  -13.2 °C 1013.4 in /  34313.7 hPa SW 12.9 mph /  20.8 km/h 12.9 mph /  20.8 km/h 85 % 0.0 in /  0 mm
19:27 10.6 °F /  -11.9 °C 8.2 °F /  -13.2 °C 1013.8 in /  34327.3 hPa SW 8.0 mph /  12.9 km/h 12.9 mph /  20.8 km/h 85 % 0.0 in /  0 mm
19:32 10.6 °F /  -11.9 °C 8.2 °F /  -13.2 °C 1013.8 in /  34327.3 hPa SW 9.7 mph /  15.6 km/h 12.9 mph /  20.8 km/h 85 % 0.0 in /  0 mm
19:37 10.5 °F /  -11.9 °C 8.1 °F /  -13.3 °C 1013.8 in /  34327.3 hPa SW 9.7 mph /  15.6 km/h 12.9 mph /  20.8 km/h 85 % 0.0 in /  0 mm
19:42 10.7 °F /  -11.8 °C 8.1 °F /  -13.3 °C 1013.8 in /  34327.3 hPa SW 12.9 mph /  20.8 km/h 14.5 mph /  23.3 km/h 84 % 0.0 in /  0 mm
19:47 11.0 °F /  -11.7 °C 8.2 °F /  -13.2 °C 1013.8 in /  34327.3 hPa SW 4.8 mph /  7.7 km/h 14.5 mph /  23.3 km/h 83 % 0.0 in /  0 mm
19:52 11.2 °F /  -11.6 °C 8.2 °F /  -13.2 °C 1013.8 in /  34327.3 hPa SW 6.4 mph /  10.3 km/h 14.5 mph /  23.3 km/h 82 % 0.0 in /  0 mm
19:57 11.2 °F /  -11.6 °C 8.2 °F /  -13.2 °C 1013.8 in /  34327.3 hPa West 3.2 mph /  5.1 km/h 14.5 mph /  23.3 km/h 82 % 0.0 in /  0 mm
20:02 11.3 °F /  -11.5 °C 8.2 °F /  -13.2 °C 1013.8 in /  34327.3 hPa Calm   11.3 mph /  18.2 km/h 81 % 0.0 in /  0 mm
20:12 11.5 °F /  -11.4 °C 8.2 °F /  -13.2 °C 1013.8 in /  34327.3 hPa SW 6.4 mph /  10.3 km/h 14.5 mph /  23.3 km/h 80 % 0.0 in /  0 mm
20:17 11.6 °F /  -11.3 °C 8.3 °F /  -13.2 °C 1013.4 in /  34313.7 hPa SW 3.2 mph /  5.1 km/h 14.5 mph /  23.3 km/h 80 % 0.0 in /  0 mm
20:22 11.6 °F /  -11.3 °C 8.3 °F /  -13.2 °C 1013.4 in /  34313.7 hPa WSW 11.3 mph /  18.2 km/h 14.5 mph /  23.3 km/h 80 % 0.0 in /  0 mm
20:32 11.6 °F /  -11.3 °C 8.3 °F /  -13.2 °C 1013.4 in /  34313.7 hPa SW 8.0 mph /  12.9 km/h 14.5 mph /  23.3 km/h 80 % 0.0 in /  0 mm
20:37 11.5 °F /  -11.4 °C 8.2 °F /  -13.2 °C 1013.4 in /  34313.7 hPa SW 9.7 mph /  15.6 km/h 14.5 mph /  23.3 km/h 80 % 0.0 in /  0 mm
20:42 11.3 °F /  -11.5 °C 8.2 °F /  -13.2 °C 1013.4 in /  34313.7 hPa SW 9.7 mph /  15.6 km/h 12.9 mph /  20.8 km/h 81 % 0.0 in /  0 mm
20:52 11.2 °F /  -11.6 °C 8.1 °F /  -13.3 °C 1013.8 in /  34327.3 hPa SW 9.7 mph /  15.6 km/h 16.1 mph /  25.9 km/h 81 % 0.0 in /  0 mm
20:57 11.2 °F /  -11.6 °C 8.1 °F /  -13.3 °C 1013.8 in /  34327.3 hPa SW 11.3 mph /  18.2 km/h 16.1 mph /  25.9 km/h 81 % 0.0 in /  0 mm
21:02 11.1 °F /  -11.6 °C 8.0 °F /  -13.3 °C 1013.8 in /  34327.3 hPa SSW 4.8 mph /  7.7 km/h 16.1 mph /  25.9 km/h 81 % 0.0 in /  0 mm
21:07 10.6 °F /  -11.9 °C 8.0 °F /  -13.3 °C 1013.4 in /  34313.7 hPa SSW 9.7 mph /  15.6 km/h 16.1 mph /  25.9 km/h 84 % 0.0 in /  0 mm
21:12 10.6 °F /  -11.9 °C 8.0 °F /  -13.3 °C 1013.4 in /  34313.7 hPa SW 4.8 mph /  7.7 km/h 16.1 mph /  25.9 km/h 84 % 0.0 in /  0 mm
21:22 10.8 °F /  -11.8 °C 7.9 °F /  -13.4 °C 1013.4 in /  34313.7 hPa SW 4.8 mph /  7.7 km/h 12.9 mph /  20.8 km/h 82 % 0.0 in /  0 mm
21:32 10.7 °F /  -11.8 °C 7.9 °F /  -13.4 °C 1013.4 in /  34313.7 hPa SSW 4.8 mph /  7.7 km/h 12.9 mph /  20.8 km/h 83 % 0.0 in /  0 mm
21:37 10.5 °F /  -11.9 °C 7.7 °F /  -13.5 °C 1013.4 in /  34313.7 hPa SW 6.4 mph /  10.3 km/h 11.3 mph /  18.2 km/h 83 % 0.0 in /  0 mm
21:42 10.5 °F /  -11.9 °C 7.9 °F /  -13.4 °C 1013.1 in /  34303.6 hPa SW 4.8 mph /  7.7 km/h 9.7 mph /  15.6 km/h 84 % 0.0 in /  0 mm
21:47 10.5 °F /  -11.9 °C 7.7 °F /  -13.5 °C 1013.1 in /  34303.6 hPa SW 8.0 mph /  12.9 km/h 8.0 mph /  12.9 km/h 83 % 0.0 in /  0 mm
21:52 10.5 °F /  -11.9 °C 7.7 °F /  -13.5 °C 1013.1 in /  34303.6 hPa SW 6.4 mph /  10.3 km/h 9.7 mph /  15.6 km/h 83 % 0.0 in /  0 mm
21:57 10.5 °F /  -11.9 °C 7.7 °F /  -13.5 °C 1013.1 in /  34303.6 hPa SSW 1.6 mph /  2.6 km/h 9.7 mph /  15.6 km/h 83 % 0.0 in /  0 mm
22:02 10.0 °F /  -12.2 °C 7.2 °F /  -13.8 °C 1013.1 in /  34303.6 hPa SSE 3.2 mph /  5.1 km/h 9.7 mph /  15.6 km/h 83 % 0.0 in /  0 mm
22:12 9.2 °F /  -12.7 °C 7.1 °F /  -13.8 °C 1013.1 in /  34303.6 hPa South 1.6 mph /  2.6 km/h 4.8 mph /  7.7 km/h 87 % 0.0 in /  0 mm
22:17 8.8 °F /  -12.9 °C 6.9 °F /  -13.9 °C 1012.8 in /  34293.4 hPa SW 4.8 mph /  7.7 km/h 4.8 mph /  7.7 km/h 88 % 0.0 in /  0 mm
22:22 9.1 °F /  -12.7 °C 7.4 °F /  -13.7 °C 1012.8 in /  34293.4 hPa SW 6.4 mph /  10.3 km/h 6.4 mph /  10.3 km/h 89 % 0.0 in /  0 mm
22:27 9.4 °F /  -12.6 °C 7.5 °F /  -13.6 °C 1012.8 in /  34293.4 hPa SSW 4.8 mph /  7.7 km/h 8.0 mph /  12.9 km/h 88 % 0.0 in /  0 mm
22:32 9.7 °F /  -12.4 °C 7.5 °F /  -13.6 °C 1012.8 in /  34293.4 hPa SW 4.8 mph /  7.7 km/h 8.0 mph /  12.9 km/h 86 % 0.0 in /  0 mm
22:37 10.0 °F /  -12.2 °C 7.6 °F /  -13.6 °C 1012.8 in /  34293.4 hPa WSW 6.4 mph /  10.3 km/h 9.7 mph /  15.6 km/h 85 % 0.0 in /  0 mm
22:42 10.1 °F /  -12.2 °C 7.5 °F /  -13.6 °C 1012.8 in /  34293.4 hPa WSW 6.4 mph /  10.3 km/h 9.7 mph /  15.6 km/h 84 % 0.0 in /  0 mm
22:52 10.4 °F /  -12 °C 7.8 °F /  -13.4 °C 1012.8 in /  34293.4 hPa SSW 3.2 mph /  5.1 km/h 12.9 mph /  20.8 km/h 84 % 0.0 in /  0 mm
22:57 10.2 °F /  -12.1 °C 7.4 °F /  -13.7 °C 1012.8 in /  34293.4 hPa SSE 1.6 mph /  2.6 km/h 12.9 mph /  20.8 km/h 83 % 0.0 in /  0 mm
23:02 9.2 °F /  -12.7 °C 6.5 °F /  -14.2 °C 1012.8 in /  34293.4 hPa SE 3.2 mph /  5.1 km/h 11.3 mph /  18.2 km/h 83 % 0.0 in /  0 mm
23:12 8.5 °F /  -13.1 °C 6.5 °F /  -14.2 °C 1012.8 in /  34293.4 hPa SSE 1.6 mph /  2.6 km/h 6.4 mph /  10.3 km/h 87 % 0.0 in /  0 mm
23:17 8.1 °F /  -13.3 °C 6.1 °F /  -14.4 °C 1012.8 in /  34293.4 hPa SSW 1.6 mph /  2.6 km/h 6.4 mph /  10.3 km/h 87 % 0.0 in /  0 mm
23:22 7.7 °F /  -13.5 °C 6.0 °F /  -14.4 °C 1012.8 in /  34293.4 hPa SSW 1.6 mph /  2.6 km/h 4.8 mph /  7.7 km/h 89 % 0.0 in /  0 mm
23:27 7.6 °F /  -13.6 °C 6.1 °F /  -14.4 °C 1012.8 in /  34293.4 hPa South 1.6 mph /  2.6 km/h 3.2 mph /  5.1 km/h 90 % 0.0 in /  0 mm
23:32 7.5 °F /  -13.6 °C 6.1 °F /  -14.4 °C 1012.8 in /  34293.4 hPa SSW 1.6 mph /  2.6 km/h 3.2 mph /  5.1 km/h 91 % 0.0 in /  0 mm
23:42 7.8 °F /  -13.4 °C 6.6 °F /  -14.1 °C 1012.4 in /  34279.9 hPa SSE 1.6 mph /  2.6 km/h 3.2 mph /  5.1 km/h 92 % 0.0 in /  0 mm
23:47 7.9 °F /  -13.4 °C 6.7 °F /  -14.1 °C 1012.4 in /  34279.9 hPa Calm   3.2 mph /  5.1 km/h 92 % 0.0 in /  0 mm
23:52 7.9 °F /  -13.4 °C 6.7 °F /  -14.1 °C 1012.4 in /  34279.9 hPa Calm   1.6 mph /  2.6 km/h 92 % 0.0 in /  0 mm
23:57 7.8 °F /  -13.4 °C 6.4 °F /  -14.2 °C 1012.4 in /  34279.9 hPa SSW 1.6 mph /  2.6 km/h 1.6 mph /  2.6 km/h 91 % 0.0 in /  0 mm
Meteo18
Compliments of Weather Underground - 4 mb

Script developed by  Jim McMurry - jmcmurry@mwt.net Adapted for the template by  Wim van der Kuil - Leuven-Template.eu

You find our weather info also at:

European Weather Network

Weather Underground

Equipment we use:

Weather-station
Davis Vue

Weather-program
Meteobridge

Weather-server
Raspberry PI 2 B+

Provider
1 and 1

Davis Vue

Meteobridge

Raspberry PI 2 B+

1 and 1